ADDS METAR Data INFO
IDs: Format: Raw Decoded Include TAF

Data at: 0545 UTC 11 Dec 2017

KMSP 110453Z 19003KT 10SM OVC085 M04/M06 A2998 RMK AO2 SLP164 T10391056
KMSP 110353Z 00000KT 10SM SCT085 SCT220 OVC250 M04/M06 A2999 RMK AO2 SLP168 T10441061
KMSP 110253Z 18005KT 10SM FEW220 OVC250 M04/M06 A3000 RMK AO2 SLP173 T10391061 58017
KMSP 110153Z 20004KT 10SM FEW220 BKN250 M03/M06 A3003 RMK AO2 SLP181 T10281061
KMSP 110053Z 00000KT 8SM FEW220 BKN250 M04/M07 A3005 RMK AO2 SLP187 T10391067
KMSP 102353Z 00000KT 10SM FEW250 M03/M06 A3005 RMK AO2 SLP190 4/002 T10281061 11017 21039 52011
KMSP 102253Z 00000KT 10SM FEW110 FEW250 M03/M06 A3005 RMK AO2 SLP188 T10281061
KMSP 102153Z 33004KT 10SM FEW021 FEW110 M02/M06 A3003 RMK AO2 SLP182 T10171056
KMSP 102053Z 30007KT 10SM SCT021 BKN110 M02/M06 A3002 RMK AO2 SLP179 T10171056 51008
KMSP 101953Z 31010KT 10SM OVC020 M02/M06 A3001 RMK AO2 SLP177 T10171056
KMSP 101853Z 33010KT 10SM OVC019 M02/M06 A3002 RMK AO2 SLP179 T10171056
KMSP 101753Z COR 32009KT 10SM OVC018 M02/M06 A3000 RMK AO2 SLP170 4/002 T10221056 11017 21044 50013
KMSP 101653Z 35012KT 10SM OVC019 M02/M06 A3001 RMK AO2 SLP173 T10221056
KMSP 101553Z 33010KT 10SM OVC023 M02/M05 A2998 RMK AO2 SLP164 T10221050
KMSP 101453Z 32011KT 10SM OVC025 M03/M06 A2996 RMK AO2 SLP157 T10281056 53025
KMSP 101353Z 33009KT 10SM OVC025 M03/M06 A2993 RMK AO2 SLP149 T10331056
KMSP 101253Z 33010KT 10SM OVC025 M03/M06 A2990 RMK AO2 SLP139 T10331056
KMSP 101214Z 31008KT 10SM BKN026 M04/M06 A2990 RMK AO2 T10391056
KMSP 101153Z 32008KT 10SM CLR M04/M06 A2988 RMK AO2 SLP131 I6000 T10441061 11044 21067 53023
KMSP 101053Z 32007KT 10SM FEW170 M05/M07 A2984 RMK AO2 SLP119 I1000 T10501067
KMSP 100953Z 00000KT 10SM CLR M07/M08 A2983 RMK AO2 SLP114 T10671078
KMSP 100853Z 00000KT 10SM CLR M06/M08 A2981 RMK AO2 SLP108 T10611078 56010
KMSP 100753Z 00000KT 10SM CLR M06/M08 A2981 RMK AO2 SLP109 T10611078
KMSP 100653Z 20003KT 10SM CLR M05/M08 A2981 RMK AO2 SLP108 T10501078
KMSP 100553Z COR 20005KT 10SM CLR M05/M08 A2984 RMK AO2 SLP119 4/002 T10501083 11044 21056 410171072 56040
KMSP 100453Z 18007KT 10SM OVC085 M04/M08 A2987 RMK AO2 SLP130 T10441083
KMSP 100353Z 19006KT 10SM OVC090 M05/M09 A2991 RMK AO2 SLP141 T10501089
KMSP 100253Z 22008KT 10SM OVC095 M06/M09 A2996 RMK AO2 SLP160 T10561094 58026
KMSP 100153Z 22008KT 10SM OVC110 M06/M09 A2999 RMK AO2 SLP171 T10561094
KMSP 100053Z 23007KT 10SM BKN080 OVC095 M06/M09 A3002 RMK AO2 SLP179 T10561094
KMSP 092353Z 23007KT 10SM FEW026 BKN110 M06/M10 A3004 RMK AO2 SLP187 4/002 T10561100 11056 21067 58015
KMSP 092253Z 24004KT 10SM FEW026 FEW120 BKN300 M06/M11 A3006 RMK AO2 SLP193 T10611106
KMSP 092220Z 25010KT 10SM FEW026 BKN300 M06/M11 A3007 RMK AO2 T10561106
KMSP 092153Z 25006KT 10SM BKN027 BKN300 M06/M11 A3007 RMK AO2 SLP197 T10561106
KMSP 092053Z 31006KT 10SM BKN028 OVC300 M06/M11 A3009 RMK AO2 SLP201 T10611111 55007
KMSP 091953Z 33008KT 10SM BKN027 BKN300 M06/M11 A3008 RMK AO2 SLP200 T10561111
KMSP 091853Z 35008KT 10SM OVC027 M06/M11 A3009 RMK AO2 SLP202 T10611111
KMSP 091753Z 33011KT 10SM OVC028 M07/M11 A3011 RMK AO2 SLP208 4/002 60000 T10671111 11061 21072 50008